Detall de PIREP

Printer-friendly versionPDF version

[2010/11/05 18:13:00]
Flight IATA:CT0001
Pilot Number:042
Company ICAO:CAT
Aircraft Type:B75F/E
PAX:3
Departing Airport: LEBL
Destination Airport: LEVC
Alternate Airport:LEPA
Online: VATSIM
Route:LOTOS UM985 SOPET
Flight Level:FL290
No Slew and time accel
No pause
Crash detect
Detect pilot in Cockpit between each 30 and 45 minutes
18:13 Zero fuel Weight: 181580 Lbs, Fuel Weight: 75344 Lbs
18:13 VATSIM:LEBL 051800Z VRB02KT CAVOK 18/14 Q1027 NOSIG
18:13 VATSIM:LEVC 051800Z 06003KT 9999 FEW020 18/14 Q1028 NOSIG
18:13 VOICE CATALONIAN/PRACTICE ENGLISH
18:28 Parking Brakes off
18:34 Take-off
18:34 Take off Weight: 255780 Lbs
18:34 Wind: 002 @ 002 Knots Heading: 066
18:34 POS N41 18 10 E002 05 43
18:34 Gear Up: 173 Knots
18:34 Flaps:2 at 173 Knots
18:35 Flaps:1 at 162 Knots
18:35 Flaps:0 at 175 Knots
18:48 TOC
18:48 Fuel Weight: 69347 Lb
18:49 Wind:032@026 Knots Heading: 249 Ground Speed: 454 Knots Altitude 29406 ft
18:53 TOD
18:53 Fuel Weight: 68534 Lb
19:04 Wind:122@007 Knots Heading: 263 Ground Speed: 230 Knots Altitude 8231 ft
19:04 Flaps:1 at 195 Knots
19:06 Flaps:2 at 181 Knots
19:09 Flaps:3 at 179 Knots
19:10 Flaps:4 at 161 Knots
19:11 Flaps:5 at 156 Knots
19:11 Gear Down: 156 Knots
19:12 Flaps:6 at 148 Knots
19:16 TouchDown:Rate -347 ft/min Speed: 131 Knots
19:17 VATSIM:LEVC 051900Z 02003KT 340V060 9999 FEW020 17/14 Q1028 NOSIG
19:17 Land
19:17 Wind:003@002 Knots
19:17 Heading: 117
19:17 Flight Duration: 00:43
19:17 Landing Weight: 247198 Lbs
19:17 POS N39 29 19 W000 28 47
19:19 Parking brakes on
19:19 Block to Block Duration: 00:51
19:19 Final Fuel: 65302 Lbls
19:19 Spent Fuel: 10041 Lbls
19:19 Flight Length: 220 NM
19:19 TOD Land Length: 101 NM

Exportar CSV

Powered by Drupal - Modified by Danger4k